createdAt,value
2022-09-04T00:00:11.575Z,98447.03
2022-09-04T00:03:26.848Z,98445.31
2022-09-04T00:06:00.232Z,98447.22
2022-09-04T00:08:56.466Z,98449.22
2022-09-04T00:12:06.476Z,98440.78
2022-09-04T00:15:14.516Z,98450.19
2022-09-04T00:18:46.588Z,98457.47
2022-09-04T00:21:45.279Z,98462.50
2022-09-04T00:24:19.329Z,98462.25
2022-09-04T00:27:43.406Z,98468.66
2022-09-04T00:30:21.971Z,98464.03
2022-09-04T00:33:28.729Z,98462.72
2022-09-04T00:36:03.822Z,98454.88
2022-09-04T00:39:02.891Z,98457.34
2022-09-04T00:42:03.131Z,98462.38
2022-09-04T00:45:23.462Z,98473.25
2022-09-04T00:49:18.086Z,98465.00
2022-09-04T00:52:31.413Z,98468.25
2022-09-04T00:56:01.422Z,98474.81
2022-09-04T00:59:30.224Z,98471.47
2022-09-04T01:02:47.119Z,98482.22
2022-09-04T01:06:18.852Z,98480.28
2022-09-04T01:09:15.689Z,98475.41
2022-09-04T01:12:51.324Z,98472.16
2022-09-04T01:15:58.952Z,98476.28
2022-09-04T01:18:59.795Z,98479.38
2022-09-04T01:22:26.336Z,98483.16
2022-09-04T01:25:47.869Z,98484.25
2022-09-04T01:29:06.178Z,98486.41
2022-09-04T01:31:56.422Z,98490.22
2022-09-04T01:35:23.961Z,98489.50
2022-09-04T01:38:38.855Z,98493.91
2022-09-04T01:42:11.572Z,98497.00
2022-09-04T01:44:39.463Z,98500.84
2022-09-04T01:47:46.821Z,98498.09
2022-09-04T01:50:26.407Z,98502.97
2022-09-04T01:53:27.118Z,98496.44
2022-09-04T01:56:53.980Z,98490.94
2022-09-04T01:59:51.772Z,98500.13
2022-09-04T02:03:41.167Z,98500.84
2022-09-04T02:07:03.093Z,98499.88
2022-09-04T02:09:53.888Z,98498.91
2022-09-04T02:13:08.067Z,98504.03
2022-09-04T02:16:42.786Z,98501.53
2022-09-04T02:20:22.686Z,98506.56
2022-09-04T02:23:38.628Z,98500.81
2022-09-04T02:26:32.074Z,98505.38
2022-09-04T02:29:40.425Z,98504.63
2022-09-04T02:32:37.859Z,98502.63
2022-09-04T02:35:52.747Z,98506.09
2022-09-04T02:39:03.899Z,98508.69
2022-09-04T02:42:20.376Z,98508.44
2022-09-04T02:45:35.985Z,98512.28
2022-09-04T02:49:22.465Z,98506.56
2022-09-04T02:52:56.092Z,98514.41
2022-09-04T02:56:16.509Z,98507.16
2022-09-04T02:59:52.805Z,98512.84
2022-09-04T03:02:30.707Z,98510.69
2022-09-04T03:05:46.964Z,98513.16
2022-09-04T03:08:53.297Z,98513.69
2022-09-04T03:11:41.880Z,98507.81
2022-09-04T03:15:00.177Z,98505.47
2022-09-04T03:18:38.933Z,98510.06
2022-09-04T03:21:20.995Z,98515.31
2022-09-04T03:24:50.128Z,98520.41
2022-09-04T03:27:19.039Z,98517.44
2022-09-04T03:30:12.131Z,98511.94
2022-09-04T03:33:33.111Z,98518.41
2022-09-04T03:36:43.647Z,98525.31
2022-09-04T03:39:54.117Z,98522.06
2022-09-04T03:43:17.185Z,98523.38
2022-09-04T03:47:06.968Z,98528.25
2022-09-04T03:51:01.737Z,98545.28
2022-09-04T03:53:49.992Z,98533.72
2022-09-04T03:57:08.038Z,98549.16
2022-09-04T04:00:21.511Z,98538.06
2022-09-04T04:03:29.008Z,98540.59
2022-09-04T04:06:41.062Z,98541.75
2022-09-04T04:10:45.292Z,98538.66
2022-09-04T04:14:05.375Z,98550.34
2022-09-04T04:17:12.577Z,98548.09
2022-09-04T04:21:00.255Z,98555.03
2022-09-04T04:24:14.608Z,98562.94
2022-09-04T04:26:56.283Z,98560.53
2022-09-04T04:30:10.108Z,98565.13
2022-09-04T04:33:17.557Z,98566.88
2022-09-04T04:36:26.848Z,98572.91
2022-09-04T04:39:40.151Z,98576.94
2022-09-04T04:42:47.595Z,98585.84
2022-09-04T04:46:08.944Z,98589.28
2022-09-04T04:49:20.254Z,98581.91
2022-09-04T04:52:44.365Z,98589.66
2022-09-04T04:55:41.923Z,98589.88
2022-09-04T04:58:50.701Z,98598.88
2022-09-04T05:01:52.954Z,98598.31
2022-09-04T05:05:05.796Z,98601.06
2022-09-04T05:08:08.360Z,98612.53
2022-09-04T05:10:58.510Z,98612.41
2022-09-04T05:14:08.356Z,98607.47
2022-09-04T05:17:49.228Z,98623.69
2022-09-04T05:20:45.699Z,98627.16
2022-09-04T05:23:49.500Z,98629.47
2022-09-04T05:26:56.109Z,98630.09
2022-09-04T05:30:03.506Z,98629.84
2022-09-04T05:33:10.612Z,98636.22
2022-09-04T05:36:31.802Z,98634.00
2022-09-04T05:39:40.243Z,98649.22
2022-09-04T05:42:56.315Z,98655.63
2022-09-04T05:46:18.197Z,98655.84
2022-09-04T05:49:51.893Z,98659.25
2022-09-04T05:53:01.067Z,98659.56
2022-09-04T05:56:00.644Z,98665.78
2022-09-04T05:59:50.133Z,98667.91
2022-09-04T06:03:14.994Z,98675.13
2022-09-04T06:06:52.827Z,98674.22
2022-09-04T06:10:03.947Z,98674.94
2022-09-04T06:13:23.733Z,98679.84
2022-09-04T06:17:03.778Z,98677.00
2022-09-04T06:20:01.936Z,98690.84
2022-09-04T06:23:25.920Z,98691.22
2022-09-04T06:27:24.835Z,98694.63
2022-09-04T06:30:16.411Z,98689.53
2022-09-04T06:33:50.277Z,98698.06
2022-09-04T06:37:10.825Z,98697.63
2022-09-04T06:40:04.859Z,98686.75
2022-09-04T06:43:38.111Z,98683.13
2022-09-04T06:46:57.501Z,98681.31
2022-09-04T06:50:13.536Z,98691.13
2022-09-04T06:53:08.676Z,98687.69
2022-09-04T06:56:40.644Z,98691.63
2022-09-04T06:59:55.880Z,98693.50
2022-09-04T07:03:14.824Z,98699.41
2022-09-04T07:06:24.781Z,98704.66
2022-09-04T07:09:28.468Z,98702.53
2022-09-04T07:12:50.356Z,98703.84
2022-09-04T07:15:43.809Z,98709.81
2022-09-04T07:18:50.033Z,98701.59
2022-09-04T07:22:26.864Z,98703.75
2022-09-04T07:26:00.629Z,98699.25
2022-09-04T07:29:26.045Z,98705.13
2022-09-04T07:33:00.336Z,98707.03
2022-09-04T07:36:29.679Z,98717.28
2022-09-04T07:39:23.469Z,98714.88
2022-09-04T07:42:31.166Z,98714.72
2022-09-04T07:45:38.543Z,98717.63
2022-09-04T07:48:55.503Z,98715.91
2022-09-04T07:51:33.222Z,98715.28
2022-09-04T07:54:56.724Z,98722.78
2022-09-04T07:58:19.839Z,98729.50
2022-09-04T08:01:40.400Z,98728.16
2022-09-04T08:05:04.765Z,98732.69
2022-09-04T08:07:34.889Z,98736.13
2022-09-04T08:10:26.464Z,98733.97
2022-09-04T08:14:00.532Z,98730.34
2022-09-04T08:16:44.922Z,98732.59
2022-09-04T08:19:48.960Z,98739.94
2022-09-04T08:23:01.860Z,98740.91
2022-09-04T08:26:41.706Z,98739.25
2022-09-04T08:29:57.798Z,98737.59
2022-09-04T08:33:15.923Z,98739.34
2022-09-04T08:36:03.485Z,98735.25
2022-09-04T08:39:09.634Z,98731.47
2022-09-04T08:42:00.577Z,98747.47
2022-09-04T08:45:30.447Z,98750.00
2022-09-04T08:49:18.555Z,98749.84
2022-09-04T08:52:41.132Z,98748.41
2022-09-04T08:55:46.921Z,98740.03
2022-09-04T08:59:13.474Z,98746.22
2022-09-04T09:02:08.565Z,98745.63
2022-09-04T09:05:00.913Z,98749.16
2022-09-04T09:07:59.668Z,98753.78
2022-09-04T09:11:41.521Z,98751.81
2022-09-04T09:15:39.667Z,98747.53
2022-09-04T09:19:02.980Z,98743.00
2022-09-04T09:22:03.763Z,98752.63
2022-09-04T09:25:04.645Z,98745.88
2022-09-04T09:28:40.900Z,98746.78
2022-09-04T09:32:09.208Z,98742.47
2022-09-04T09:35:58.464Z,98742.47
2022-09-04T09:39:19.656Z,98739.84
2022-09-04T09:42:21.525Z,98729.94
2022-09-04T09:45:31.720Z,98729.22
2022-09-04T09:48:58.444Z,98732.97
2022-09-04T09:52:23.153Z,98744.06
2022-09-04T09:56:09.489Z,98729.81
2022-09-04T09:59:44.736Z,98722.44
2022-09-04T10:02:45.950Z,98726.97
2022-09-04T10:05:57.215Z,98725.09
2022-09-04T10:09:28.939Z,98727.59
2022-09-04T10:12:57.865Z,98725.56
2022-09-04T10:16:24.874Z,98725.91
2022-09-04T10:19:50.680Z,98727.03
2022-09-04T10:23:13.314Z,98724.84
2022-09-04T10:26:16.076Z,98721.84
2022-09-04T10:29:37.138Z,98719.31
2022-09-04T10:32:33.013Z,98711.63
2022-09-04T10:36:22.624Z,98715.19
2022-09-04T10:40:11.948Z,98703.69
2022-09-04T10:43:16.960Z,98702.84
2022-09-04T10:46:22.991Z,98703.38
2022-09-04T10:49:47.380Z,98701.72
2022-09-04T10:53:21.501Z,98697.66
2022-09-04T10:56:23.130Z,98696.75
2022-09-04T10:59:31.060Z,98702.06
2022-09-04T11:03:25.658Z,98698.19
2022-09-04T11:07:18.635Z,98694.50
2022-09-04T11:11:18.200Z,98690.97
2022-09-04T11:14:34.196Z,98697.78
2022-09-04T11:17:54.832Z,98699.00
2022-09-04T11:21:07.818Z,98690.28
2022-09-04T11:24:25.539Z,98695.63
2022-09-04T11:27:51.879Z,98696.72
2022-09-04T11:30:48.507Z,98680.88
2022-09-04T11:34:21.820Z,98677.56
2022-09-04T11:37:59.352Z,98681.81
2022-09-04T11:41:29.057Z,98680.88
2022-09-04T11:44:16.916Z,98680.72
2022-09-04T11:47:30.537Z,98674.16
2022-09-04T11:51:16.405Z,98671.88
2022-09-04T11:54:17.557Z,98683.03
2022-09-04T11:58:13.920Z,98675.53
2022-09-04T12:01:52.594Z,98684.94
2022-09-04T12:04:49.378Z,98679.91
2022-09-04T12:08:10.415Z,98677.81
2022-09-04T12:11:56.489Z,98677.38
2022-09-04T12:14:58.785Z,98669.59
2022-09-04T12:18:24.002Z,98669.22
2022-09-04T12:21:25.415Z,98690.94
2022-09-04T12:24:30.988Z,98678.13
2022-09-04T12:27:32.101Z,98672.75
2022-09-04T12:31:07.806Z,98675.88
2022-09-04T12:34:38.219Z,98664.72
2022-09-04T12:38:16.788Z,98668.84
2022-09-04T12:41:19.483Z,98671.13
2022-09-04T12:44:32.384Z,98673.09
2022-09-04T12:47:33.902Z,98663.78
2022-09-04T12:51:01.416Z,98658.75
2022-09-04T12:54:29.796Z,98666.50
2022-09-04T12:57:49.503Z,98671.22
2022-09-04T13:00:17.619Z,98663.16
2022-09-04T13:03:20.945Z,98652.50
2022-09-04T13:06:40.676Z,98649.44
2022-09-04T13:10:32.669Z,98653.91
2022-09-04T13:13:25.229Z,98650.25
2022-09-04T13:16:20.416Z,98656.53
2022-09-04T13:19:47.334Z,98663.03
2022-09-04T13:23:03.203Z,98652.78
2022-09-04T13:26:15.575Z,98654.00
2022-09-04T13:29:12.238Z,98658.78
2022-09-04T13:32:21.733Z,98652.09
2022-09-04T13:35:47.367Z,98657.28
2022-09-04T13:39:04.313Z,98652.22
2022-09-04T13:42:04.725Z,98654.75
2022-09-04T13:45:12.160Z,98641.94
2022-09-04T13:48:12.962Z,98649.34
2022-09-04T13:51:01.065Z,98645.69
2022-09-04T13:54:20.159Z,98635.16
2022-09-04T13:57:18.348Z,98638.56
2022-09-04T13:59:50.361Z,98645.41
2022-09-04T14:02:25.470Z,98649.75
2022-09-04T14:05:20.580Z,98651.22
2022-09-04T14:08:04.914Z,98639.16
2022-09-04T14:11:20.436Z,98636.69
2022-09-04T14:15:07.711Z,98638.97
2022-09-04T14:18:28.636Z,98637.84
2022-09-04T14:21:10.989Z,98645.94
2022-09-04T14:24:32.865Z,98630.59
2022-09-04T14:28:06.463Z,98639.19
2022-09-04T14:31:10.660Z,98629.13
2022-09-04T14:34:23.072Z,98626.38
2022-09-04T14:37:08.155Z,98632.78
2022-09-04T14:40:04.440Z,98624.53
2022-09-04T14:43:07.356Z,98622.91
2022-09-04T14:46:51.712Z,98621.38
2022-09-04T14:49:25.237Z,98627.31
2022-09-04T14:51:58.036Z,98623.72
2022-09-04T14:54:39.370Z,98613.13
2022-09-04T14:57:45.085Z,98621.06
2022-09-04T15:00:20.116Z,98608.34
2022-09-04T15:03:22.074Z,98604.53
2022-09-04T15:06:12.422Z,98620.50
2022-09-04T15:08:41.016Z,98612.63
2022-09-04T15:11:34.621Z,98605.56
2022-09-04T15:14:28.343Z,98606.03
2022-09-04T15:17:12.748Z,98609.94
2022-09-04T15:20:17.035Z,98603.03
2022-09-04T15:23:11.543Z,98599.06
2022-09-04T15:26:13.097Z,98592.66
2022-09-04T15:28:54.428Z,98592.22
2022-09-04T15:31:41.928Z,98594.31
2022-09-04T15:34:25.592Z,98593.38
2022-09-04T15:36:54.493Z,98591.19
2022-09-04T15:39:44.263Z,98595.69
2022-09-04T15:42:12.401Z,98592.69
2022-09-04T15:44:49.088Z,98596.78
2022-09-04T15:48:05.395Z,98601.06
2022-09-04T15:50:56.791Z,98596.13
2022-09-04T15:53:41.810Z,98594.13
2022-09-04T15:56:41.983Z,98587.19
2022-09-04T15:59:18.229Z,98582.72
2022-09-04T16:02:18.527Z,98568.19
2022-09-04T16:05:41.373Z,98580.25
2022-09-04T16:08:49.884Z,98574.13
2022-09-04T16:11:39.475Z,98575.44
2022-09-04T16:14:54.352Z,98559.00
2022-09-04T16:17:32.948Z,98565.16
2022-09-04T16:20:51.343Z,98573.34
2022-09-04T16:23:33.699Z,98571.31
2022-09-04T16:26:23.803Z,98563.72
2022-09-04T16:29:41.669Z,98564.22
2022-09-04T16:32:18.312Z,98576.13
2022-09-04T16:35:19.076Z,98571.31
2022-09-04T16:38:09.303Z,98570.84
2022-09-04T16:41:12.113Z,98571.09
2022-09-04T16:43:39.619Z,98576.03
2022-09-04T16:46:33.248Z,98576.03
2022-09-04T16:49:21.953Z,98571.66
2022-09-04T16:52:20.264Z,98571.34
2022-09-04T16:55:31.272Z,98577.22
2022-09-04T16:58:39.917Z,98574.44
2022-09-04T17:01:41.020Z,98567.53
2022-09-04T17:04:40.279Z,98570.53
2022-09-04T17:07:21.469Z,98566.53
2022-09-04T17:10:33.216Z,98579.03
2022-09-04T17:14:09.078Z,98575.00
2022-09-04T17:17:31.540Z,98568.72
2022-09-04T17:20:07.712Z,98574.38
2022-09-04T17:28:58.137Z,98568.34
2022-09-04T17:29:07.714Z,98568.75
2022-09-04T17:30:02.785Z,98572.69
2022-09-04T17:37:42.045Z,98575.66
2022-09-04T17:40:36.078Z,98578.13
2022-09-04T17:40:41.901Z,98573.00
2022-09-04T17:43:23.297Z,98576.69
2022-09-04T17:46:36.600Z,98574.81
2022-09-04T17:49:27.576Z,98560.34
2022-09-04T17:52:08.758Z,98578.28
2022-09-04T17:54:48.951Z,98565.09
2022-09-04T17:58:09.252Z,98575.03
2022-09-04T18:01:31.983Z,98579.94
2022-09-04T18:05:03.465Z,98580.06
2022-09-04T18:08:08.898Z,98583.38
2022-09-04T18:10:57.684Z,98594.22
2022-09-04T18:14:01.620Z,98599.88
2022-09-04T18:16:51.772Z,98597.56
2022-09-04T18:20:17.781Z,98603.75
2022-09-04T18:22:44.830Z,98601.97
2022-09-04T18:25:34.103Z,98602.34
2022-09-04T18:28:25.528Z,98607.41
2022-09-04T18:37:12.604Z,98607.91
2022-09-04T18:37:19.202Z,98605.69
2022-09-04T18:39:13.186Z,98612.63
2022-09-04T18:50:26.019Z,98612.91
2022-09-04T18:50:31.758Z,98620.75
2022-09-04T18:50:40.778Z,98625.28
2022-09-04T18:51:21.368Z,98622.97
2022-09-04T18:54:20.178Z,98622.38
2022-09-04T18:56:56.368Z,98625.47
2022-09-04T18:59:38.232Z,98622.44
2022-09-04T19:02:27.075Z,98620.09
2022-09-04T19:05:11.087Z,98621.66
2022-09-04T19:07:52.449Z,98622.91
2022-09-04T19:10:54.555Z,98622.91
2022-09-04T19:14:10.547Z,98624.38
2022-09-04T19:17:03.280Z,98632.22
2022-09-04T19:19:54.482Z,98627.81
2022-09-04T19:22:45.161Z,98631.47
2022-09-04T19:25:30.685Z,98635.94
2022-09-04T19:28:24.722Z,98633.22
2022-09-04T19:31:48.097Z,98642.66
2022-09-04T19:34:47.771Z,98642.13
2022-09-04T19:40:42.846Z,98639.63
2022-09-04T19:46:00.908Z,98644.38
2022-09-04T19:46:05.114Z,98636.03
2022-09-04T19:48:01.810Z,98652.72
2022-09-04T19:53:21.953Z,98650.78
2022-09-04T19:53:49.389Z,98658.81
2022-09-04T19:57:17.818Z,98657.47
2022-09-04T19:59:45.568Z,98649.97
2022-09-04T20:02:33.985Z,98651.06
2022-09-04T20:05:30.984Z,98655.78
2022-09-04T20:08:51.797Z,98661.06
2022-09-04T20:11:55.645Z,98663.53
2022-09-04T20:14:44.152Z,98663.28
2022-09-04T20:18:04.511Z,98659.38
2022-09-04T20:21:07.256Z,98665.75
2022-09-04T20:24:24.245Z,98673.22
2022-09-04T20:27:20.364Z,98681.28
2022-09-04T20:30:16.436Z,98679.34
2022-09-04T20:33:16.301Z,98682.09
2022-09-04T20:36:02.769Z,98678.22
2022-09-04T20:39:07.164Z,98692.81
2022-09-04T20:42:12.553Z,98696.41
2022-09-04T20:48:34.549Z,98692.22
2022-09-04T20:52:52.602Z,98697.53
2022-09-04T20:52:56.702Z,98708.03
2022-09-04T20:55:01.668Z,98694.75
2022-09-04T21:03:09.575Z,98696.66
2022-09-04T21:03:10.905Z,98715.53
2022-09-04T21:04:45.993Z,98711.81
2022-09-04T21:07:53.956Z,98713.22
2022-09-04T21:10:55.532Z,98714.88
2022-09-04T21:14:00.646Z,98713.44
2022-09-04T21:17:27.535Z,98716.72
2022-09-04T21:20:29.524Z,98711.81
2022-09-04T21:23:29.356Z,98708.22
2022-09-04T21:26:24.156Z,98718.97
2022-09-04T21:29:35.966Z,98710.34
2022-09-04T21:32:22.864Z,98700.72
2022-09-04T21:35:29.324Z,98692.34
2022-09-04T21:38:27.078Z,98708.06
2022-09-04T21:41:23.043Z,98723.75
2022-09-04T21:44:51.863Z,98733.06
2022-09-04T21:47:37.061Z,98727.50
2022-09-04T21:50:44.993Z,98734.69
2022-09-04T21:54:37.959Z,98732.13
2022-09-04T22:02:27.917Z,98726.31
2022-09-04T22:02:39.908Z,98725.16
2022-09-04T22:05:18.501Z,98732.28
2022-09-04T22:12:22.343Z,98735.53
2022-09-04T22:13:38.520Z,98735.47
2022-09-04T22:14:59.255Z,98732.19
2022-09-04T22:18:51.441Z,98740.75
2022-09-04T22:21:55.437Z,98741.91
2022-09-04T22:25:37.324Z,98741.38
2022-09-04T22:28:51.404Z,98752.56
2022-09-04T22:32:10.160Z,98768.78
2022-09-04T22:35:38.360Z,98760.47
2022-09-04T22:39:20.020Z,98766.69
2022-09-04T22:43:07.577Z,98768.94
2022-09-04T22:46:30.630Z,98775.81
2022-09-04T22:49:49.240Z,98777.91
2022-09-04T22:53:15.769Z,98777.81
2022-09-04T22:56:11.201Z,98786.16
2022-09-04T22:59:26.318Z,98784.22
2022-09-04T23:08:01.279Z,98776.41
2022-09-04T23:13:43.882Z,98778.59
2022-09-04T23:13:58.767Z,98783.09
2022-09-04T23:17:06.493Z,98777.19
2022-09-04T23:26:35.249Z,98782.84
2022-09-04T23:26:51.092Z,98782.03
2022-09-04T23:27:28.086Z,98780.47
2022-09-04T23:30:26.550Z,98786.00
2022-09-04T23:33:53.903Z,98778.09
2022-09-04T23:37:35.227Z,98784.81
2022-09-04T23:40:59.335Z,98791.28
2022-09-04T23:44:50.905Z,98780.25
2022-09-04T23:48:06.929Z,98779.53
2022-09-04T23:51:15.099Z,98771.03
2022-09-04T23:54:50.391Z,98773.94
2022-09-04T23:57:29.276Z,98769.91
